createdAt,value
2023-10-02T00:02:39.707Z,101983.13
2023-10-02T00:05:11.427Z,101982.28
2023-10-02T00:07:46.521Z,101987.56
2023-10-02T00:10:18.096Z,101989.28
2023-10-02T00:12:59.808Z,101991.88
2023-10-02T00:15:28.790Z,101995.38
2023-10-02T00:17:58.546Z,101989.13
2023-10-02T00:20:28.099Z,101981.13
2023-10-02T00:22:56.778Z,101983.81
2023-10-02T00:25:29.247Z,101979.38
2023-10-02T00:28:01.208Z,101983.91
2023-10-02T00:30:37.515Z,101989.25
2023-10-02T00:33:13.051Z,101983.06
2023-10-02T00:35:52.626Z,101984.81
2023-10-02T00:38:21.447Z,101981.31
2023-10-02T00:40:52.173Z,101972.47
2023-10-02T00:43:35.906Z,101978.66
2023-10-02T00:46:05.593Z,101979.59
2023-10-02T00:48:35.230Z,101979.59
2023-10-02T00:51:12.953Z,101988.41
2023-10-02T00:53:49.576Z,101979.50
2023-10-02T00:56:22.818Z,101971.47
2023-10-02T00:59:00.834Z,101967.06
2023-10-02T01:01:32.393Z,101969.69
2023-10-02T01:04:13.388Z,101959.06
2023-10-02T01:07:07.089Z,101951.13
2023-10-02T01:09:36.922Z,101957.31
2023-10-02T01:12:11.939Z,101948.41
2023-10-02T01:14:52.706Z,101945.81
2023-10-02T01:17:23.560Z,101943.16
2023-10-02T01:19:57.550Z,101950.22
2023-10-02T01:22:29.060Z,101947.59
2023-10-02T01:25:14.295Z,101938.72
2023-10-02T01:27:48.675Z,101940.50
2023-10-02T01:30:20.002Z,101939.66
2023-10-02T01:33:08.582Z,101938.84
2023-10-02T01:35:38.679Z,101939.81
2023-10-02T01:38:14.316Z,101940.75
2023-10-02T01:40:50.726Z,101944.28
2023-10-02T01:43:25.640Z,101937.22
2023-10-02T01:45:58.357Z,101931.03
2023-10-02T01:48:41.526Z,101936.34
2023-10-02T01:51:21.634Z,101931.91
2023-10-02T01:53:54.311Z,101930.13
2023-10-02T01:56:27.139Z,101920.41
2023-10-02T01:59:09.787Z,101936.38
2023-10-02T02:01:53.382Z,101925.91
2023-10-02T02:04:24.418Z,101934.03
2023-10-02T02:06:55.829Z,101928.00
2023-10-02T02:09:26.411Z,101921.03
2023-10-02T02:12:08.671Z,101928.19
2023-10-02T02:14:42.942Z,101927.34
2023-10-02T02:17:13.175Z,101929.13
2023-10-02T02:19:50.237Z,101928.19
2023-10-02T02:22:24.726Z,101918.44
2023-10-02T02:24:54.509Z,101905.09
2023-10-02T02:27:24.649Z,101898.91
2023-10-02T02:29:58.116Z,101903.38
2023-10-02T02:32:45.691Z,101901.66
2023-10-02T02:35:16.908Z,101900.88
2023-10-02T02:37:46.335Z,101907.16
2023-10-02T02:40:27.882Z,101903.69
2023-10-02T02:42:58.581Z,101908.13
2023-10-02T02:45:30.323Z,101906.41
2023-10-02T02:48:06.555Z,101909.09
2023-10-02T02:50:37.416Z,101899.44
2023-10-02T02:53:23.479Z,101899.44
2023-10-02T02:56:16.488Z,101896.91
2023-10-02T02:58:49.622Z,101901.34
2023-10-02T03:01:23.767Z,101901.38
2023-10-02T03:03:53.339Z,101902.28
2023-10-02T03:06:24.544Z,101901.34
2023-10-02T03:08:54.290Z,101897.75
2023-10-02T03:11:30.385Z,101899.44
2023-10-02T03:14:13.934Z,101899.38
2023-10-02T03:16:46.344Z,101886.97
2023-10-02T03:19:17.697Z,101903.75
2023-10-02T03:21:48.582Z,101884.25
2023-10-02T03:24:20.715Z,101882.44
2023-10-02T03:26:55.020Z,101874.47
2023-10-02T03:29:24.987Z,101879.78
2023-10-02T03:31:54.110Z,101868.28
2023-10-02T03:34:36.254Z,101875.41
2023-10-02T03:37:14.848Z,101871.03
2023-10-02T03:40:01.067Z,101869.31
2023-10-02T03:42:33.856Z,101858.75
2023-10-02T03:45:06.625Z,101858.88
2023-10-02T03:47:36.340Z,101869.56
2023-10-02T03:50:11.643Z,101881.09
2023-10-02T03:52:42.797Z,101863.47
2023-10-02T03:55:19.930Z,101860.88
2023-10-02T03:57:52.567Z,101856.59
2023-10-02T04:00:24.050Z,101858.41
2023-10-02T04:02:55.455Z,101858.50
2023-10-02T04:05:37.360Z,101855.00
2023-10-02T04:08:23.593Z,101852.47
2023-10-02T04:10:57.562Z,101854.25
2023-10-02T04:13:30.438Z,101856.03
2023-10-02T04:16:14.781Z,101862.25
2023-10-02T04:18:51.235Z,101854.34
2023-10-02T04:21:24.626Z,101849.06
2023-10-02T04:23:54.748Z,101849.94
2023-10-02T04:26:25.257Z,101846.41
2023-10-02T04:29:00.520Z,101849.06
2023-10-02T04:31:35.738Z,101851.69
2023-10-02T04:34:17.638Z,101849.94
2023-10-02T04:36:46.642Z,101852.63
2023-10-02T04:39:33.904Z,101857.06
2023-10-02T04:42:23.959Z,101850.91
2023-10-02T04:44:58.498Z,101857.13
2023-10-02T04:47:32.402Z,101855.41
2023-10-02T04:50:20.056Z,101860.75
2023-10-02T04:52:59.411Z,101861.63
2023-10-02T04:55:33.020Z,101861.63
2023-10-02T04:58:10.888Z,101861.63
2023-10-02T05:01:03.522Z,101858.09
2023-10-02T05:03:35.771Z,101851.94
2023-10-02T05:06:05.691Z,101843.13
2023-10-02T05:08:41.578Z,101842.25
2023-10-02T05:11:25.634Z,101857.25
2023-10-02T05:14:01.666Z,101857.25
2023-10-02T05:16:35.115Z,101864.31
2023-10-02T05:19:08.179Z,101866.91
2023-10-02T05:21:37.844Z,101867.78
2023-10-02T05:24:13.092Z,101871.31
2023-10-02T05:26:45.487Z,101866.00
2023-10-02T05:29:19.315Z,101859.78
2023-10-02T05:31:49.058Z,101862.44
2023-10-02T05:34:24.377Z,101852.69
2023-10-02T05:37:13.994Z,101847.44
2023-10-02T05:39:43.186Z,101853.66
2023-10-02T05:42:15.265Z,101849.28
2023-10-02T05:44:48.428Z,101850.19
2023-10-02T05:47:17.982Z,101855.50
2023-10-02T05:49:51.149Z,101857.28
2023-10-02T05:52:26.756Z,101853.75
2023-10-02T05:54:56.085Z,101854.63
2023-10-02T05:57:32.981Z,101860.84
2023-10-02T06:00:06.500Z,101863.50
2023-10-02T06:02:35.599Z,101867.88
2023-10-02T06:05:13.543Z,101874.06
2023-10-02T06:07:42.266Z,101887.31
2023-10-02T06:10:26.343Z,101893.44
2023-10-02T06:13:04.990Z,101893.38
2023-10-02T06:15:48.542Z,101898.63
2023-10-02T06:18:26.394Z,101901.22
2023-10-02T06:21:02.559Z,101894.03
2023-10-02T06:23:39.227Z,101895.72
2023-10-02T06:26:11.245Z,101903.63
2023-10-02T06:28:43.611Z,101914.13
2023-10-02T06:31:12.310Z,101915.78
2023-10-02T06:33:40.803Z,101917.47
2023-10-02T06:36:11.347Z,101909.44
2023-10-02T06:38:41.363Z,101920.84
2023-10-02T06:41:14.414Z,101920.75
2023-10-02T06:43:43.537Z,101921.59
2023-10-02T06:46:17.303Z,101924.19
2023-10-02T06:48:48.362Z,101911.75
2023-10-02T06:51:20.425Z,101917.03
2023-10-02T06:53:51.170Z,101923.22
2023-10-02T06:56:20.738Z,101918.81
2023-10-02T06:58:53.654Z,101924.13
2023-10-02T07:01:28.642Z,101932.97
2023-10-02T07:04:10.708Z,101925.84
2023-10-02T07:06:41.058Z,101921.41
2023-10-02T07:09:19.684Z,101921.41
2023-10-02T07:11:48.099Z,101935.56
2023-10-02T07:14:16.919Z,101931.13
2023-10-02T07:16:48.813Z,101941.69
2023-10-02T07:19:28.709Z,101931.03
2023-10-02T07:21:58.548Z,101935.44
2023-10-02T07:24:29.698Z,101925.63
2023-10-02T07:27:00.618Z,101916.72
2023-10-02T07:29:40.474Z,101913.13
2023-10-02T07:32:11.011Z,101913.13
2023-10-02T07:34:40.602Z,101916.63
2023-10-02T07:37:12.084Z,101929.78
2023-10-02T07:39:40.574Z,101930.56
2023-10-02T07:42:11.808Z,101926.91
2023-10-02T07:44:41.864Z,101923.25
2023-10-02T07:47:18.111Z,101920.41
2023-10-02T07:49:50.323Z,101925.50
2023-10-02T07:52:38.122Z,101926.19
2023-10-02T07:55:12.172Z,101927.69
2023-10-02T07:57:41.127Z,101937.28
2023-10-02T08:00:31.885Z,101937.09
2023-10-02T08:03:03.943Z,101930.66
2023-10-02T08:05:35.967Z,101922.59
2023-10-02T08:08:10.713Z,101922.56
2023-10-02T08:10:51.406Z,101925.91
2023-10-02T08:13:33.603Z,101931.13
2023-10-02T08:16:13.258Z,101933.66
2023-10-02T08:18:55.883Z,101932.66
2023-10-02T08:21:35.620Z,101933.50
2023-10-02T08:24:07.039Z,101926.28
2023-10-02T08:26:41.762Z,101925.13
2023-10-02T08:29:12.106Z,101932.94
2023-10-02T08:31:44.707Z,101931.03
2023-10-02T08:34:15.829Z,101930.09
2023-10-02T08:36:44.985Z,101928.22
2023-10-02T08:39:23.277Z,101929.06
2023-10-02T08:41:52.993Z,101923.59
2023-10-02T08:44:24.092Z,101927.75
2023-10-02T08:46:56.784Z,101932.03
2023-10-02T08:49:27.577Z,101927.41
2023-10-02T08:51:57.860Z,101927.06
2023-10-02T08:54:30.042Z,101921.44
2023-10-02T08:57:08.282Z,101917.78
2023-10-02T08:59:43.927Z,101905.19
2023-10-02T09:02:17.747Z,101906.50
2023-10-02T09:05:11.707Z,101905.00
2023-10-02T09:08:02.735Z,101917.91
2023-10-02T09:10:36.458Z,101920.31
2023-10-02T09:13:16.094Z,101915.72
2023-10-02T09:15:50.835Z,101928.13
2023-10-02T09:18:36.637Z,101918.41
2023-10-02T09:21:16.933Z,101917.66
2023-10-02T09:23:53.188Z,101918.50
2023-10-02T09:26:26.450Z,101920.06
2023-10-02T09:29:02.984Z,101911.56
2023-10-02T09:31:36.214Z,101912.88
2023-10-02T09:34:44.431Z,101911.59
2023-10-02T09:38:05.086Z,101909.44
2023-10-02T09:40:15.195Z,101899.38
2023-10-02T09:42:49.829Z,101899.75
2023-10-02T09:45:32.962Z,101901.91
2023-10-02T09:48:07.356Z,101904.19
2023-10-02T09:50:47.875Z,101903.34
2023-10-02T09:53:18.771Z,101885.69
2023-10-02T09:56:10.619Z,101882.56
2023-10-02T09:58:50.724Z,101879.72
2023-10-02T10:01:36.562Z,101876.16
2023-10-02T10:04:25.607Z,101890.47
2023-10-02T10:07:28.253Z,101877.38
2023-10-02T10:10:29.368Z,101892.13
2023-10-02T10:12:59.721Z,101890.56
2023-10-02T10:15:33.124Z,101890.66
2023-10-02T10:18:04.740Z,101895.69
2023-10-02T10:20:32.479Z,101899.66
2023-10-02T10:23:24.961Z,101894.88
2023-10-02T10:25:54.861Z,101893.75
2023-10-02T10:28:30.595Z,101885.50
2023-10-02T10:31:10.297Z,101879.97
2023-10-02T10:33:42.871Z,101878.97
2023-10-02T10:36:38.703Z,101881.88
2023-10-02T10:39:44.732Z,101883.19
2023-10-02T10:42:12.353Z,101886.75
2023-10-02T10:44:44.719Z,101880.63
2023-10-02T10:47:15.880Z,101876.44
2023-10-02T10:49:55.667Z,101873.91
2023-10-02T10:52:36.204Z,101874.66
2023-10-02T10:55:33.656Z,101872.91
2023-10-02T10:58:06.917Z,101885.91
2023-10-02T11:00:43.412Z,101868.16
2023-10-02T11:03:16.333Z,101883.28
2023-10-02T11:05:45.644Z,101879.69
2023-10-02T11:08:30.112Z,101895.06
2023-10-02T11:11:12.715Z,101892.50
2023-10-02T11:13:54.148Z,101883.41
2023-10-02T11:16:36.414Z,101871.47
2023-10-02T11:19:31.702Z,101868.25
2023-10-02T11:22:18.252Z,101865.06
2023-10-02T11:24:50.887Z,101878.66
2023-10-02T11:27:19.651Z,101863.78
2023-10-02T11:30:04.812Z,101871.47
2023-10-02T11:32:52.021Z,101865.25
2023-10-02T11:35:22.616Z,101876.59
2023-10-02T11:37:52.151Z,101876.22
2023-10-02T11:40:25.635Z,101879.59
2023-10-02T11:42:54.809Z,101877.53
2023-10-02T11:45:23.308Z,101875.59
2023-10-02T11:47:52.637Z,101879.91
2023-10-02T11:50:23.067Z,101881.56
2023-10-02T11:52:52.004Z,101884.13
2023-10-02T11:55:20.526Z,101866.53
2023-10-02T11:57:52.855Z,101868.84
2023-10-02T12:00:23.712Z,101869.06
2023-10-02T12:02:52.819Z,101869.59
2023-10-02T12:05:24.166Z,101872.66
2023-10-02T12:07:52.942Z,101865.56
2023-10-02T12:10:22.005Z,101864.03
2023-10-02T12:12:50.596Z,101863.00
2023-10-02T12:15:20.776Z,101861.69
2023-10-02T12:17:49.928Z,101865.13
2023-10-02T12:20:24.492Z,101861.66
2023-10-02T12:22:54.947Z,101857.72
2023-10-02T12:25:23.606Z,101855.25
2023-10-02T12:27:53.597Z,101859.22
2023-10-02T12:30:22.199Z,101858.31
2023-10-02T12:32:51.743Z,101852.13
2023-10-02T12:35:20.971Z,101847.63
2023-10-02T12:37:51.825Z,101846.84
2023-10-02T12:40:23.236Z,101841.72
2023-10-02T12:42:51.843Z,101839.88
2023-10-02T12:45:20.380Z,101836.09
2023-10-02T12:47:49.164Z,101832.19
2023-10-02T12:50:19.824Z,101831.88
2023-10-02T12:52:48.244Z,101832.25
2023-10-02T12:55:18.194Z,101825.00
2023-10-02T12:57:48.108Z,101817.63
2023-10-02T13:00:19.608Z,101818.78
2023-10-02T13:02:49.665Z,101815.13
2023-10-02T13:05:21.118Z,101822.44
2023-10-02T13:07:52.021Z,101816.97
2023-10-02T13:10:20.510Z,101819.13
2023-10-02T13:12:50.719Z,101820.50
2023-10-02T13:15:20.373Z,101811.94
2023-10-02T13:17:49.529Z,101817.47
2023-10-02T13:20:18.163Z,101815.03
2023-10-02T13:22:48.159Z,101822.34
2023-10-02T13:25:17.055Z,101821.31
2023-10-02T13:27:45.694Z,101806.81
2023-10-02T13:30:20.148Z,101815.66
2023-10-02T13:32:48.730Z,101816.31
2023-10-02T13:35:17.522Z,101816.69
2023-10-02T13:37:46.280Z,101812.22
2023-10-02T13:40:32.816Z,101808.44
2023-10-02T13:43:01.852Z,101804.66
2023-10-02T13:45:31.784Z,101799.84
2023-10-02T13:48:00.468Z,101792.88
2023-10-02T13:50:29.918Z,101795.19
2023-10-02T13:53:00.505Z,101783.63
2023-10-02T13:55:29.248Z,101784.56
2023-10-02T13:57:58.543Z,101783.97
2023-10-02T14:00:27.854Z,101778.13
2023-10-02T14:02:58.034Z,101778.81
2023-10-02T14:05:30.757Z,101777.97
2023-10-02T14:07:59.714Z,101776.38
2023-10-02T14:10:30.837Z,101770.28
2023-10-02T14:12:59.349Z,101767.16
2023-10-02T14:15:28.597Z,101765.75
2023-10-02T14:17:58.707Z,101767.25
2023-10-02T14:20:28.221Z,101762.63
2023-10-02T14:22:57.059Z,101759.94
2023-10-02T14:25:25.947Z,101765.31
2023-10-02T14:27:54.826Z,101756.16
2023-10-02T14:30:24.150Z,101757.91
2023-10-02T14:32:54.083Z,101760.75
2023-10-02T14:35:42.994Z,101756.50
2023-10-02T14:38:15.990Z,101755.78
2023-10-02T14:40:46.290Z,101749.63
2023-10-02T14:43:15.730Z,101757.63
2023-10-02T14:45:46.901Z,101756.75
2023-10-02T14:48:36.026Z,101755.31
2023-10-02T14:51:10.919Z,101743.25
2023-10-02T14:53:40.036Z,101736.16
2023-10-02T14:56:08.482Z,101724.78
2023-10-02T14:58:42.362Z,101730.38
2023-10-02T15:01:14.213Z,101728.47
2023-10-02T15:03:43.819Z,101726.59
2023-10-02T15:06:14.075Z,101724.69
2023-10-02T15:08:43.096Z,101725.00
2023-10-02T15:11:15.682Z,101723.53
2023-10-02T15:13:46.511Z,101722.09
2023-10-02T15:16:17.017Z,101720.38
2023-10-02T15:18:47.492Z,101726.84
2023-10-02T15:21:20.446Z,101726.00
2023-10-02T15:23:49.635Z,101716.94
2023-10-02T15:26:19.358Z,101712.94
2023-10-02T15:28:51.476Z,101711.38
2023-10-02T15:31:21.455Z,101709.72
2023-10-02T15:33:50.061Z,101719.72
2023-10-02T15:36:19.993Z,101706.25
2023-10-02T15:38:49.462Z,101707.06
2023-10-02T15:41:31.981Z,101690.94
2023-10-02T15:44:01.244Z,101699.84
2023-10-02T15:46:30.045Z,101688.94
2023-10-02T15:48:59.157Z,101688.72
2023-10-02T15:51:29.378Z,101697.84
2023-10-02T15:53:57.858Z,101688.53
2023-10-02T15:56:28.828Z,101691.72
2023-10-02T15:58:57.789Z,101685.91
2023-10-02T16:01:26.844Z,101694.41
2023-10-02T16:03:55.357Z,101692.16
2023-10-02T16:06:25.316Z,101683.44
2023-10-02T16:08:55.772Z,101682.03
2023-10-02T16:11:24.873Z,101682.34
2023-10-02T16:13:53.805Z,101668.31
2023-10-02T16:16:24.632Z,101663.91
2023-10-02T16:18:53.460Z,101658.50
2023-10-02T16:21:23.592Z,101658.41
2023-10-02T16:23:54.213Z,101652.19
2023-10-02T16:26:25.445Z,101652.13
2023-10-02T16:28:54.065Z,101653.03
2023-10-02T16:31:26.768Z,101647.78
2023-10-02T16:33:55.653Z,101645.28
2023-10-02T16:36:26.523Z,101638.31
2023-10-02T16:39:05.593Z,101636.78
2023-10-02T16:41:36.912Z,101634.50
2023-10-02T16:44:06.694Z,101642.16
2023-10-02T16:46:36.835Z,101644.56
2023-10-02T16:49:06.293Z,101644.38
2023-10-02T16:51:35.004Z,101638.06
2023-10-02T16:54:05.232Z,101640.56
2023-10-02T16:56:33.851Z,101640.44
2023-10-02T16:59:03.441Z,101639.19
2023-10-02T17:01:32.154Z,101642.38
2023-10-02T17:04:00.665Z,101651.53
2023-10-02T17:06:29.220Z,101641.00
2023-10-02T17:08:57.648Z,101647.34
2023-10-02T17:11:29.207Z,101649.22
2023-10-02T17:13:57.809Z,101646.66
2023-10-02T17:16:26.314Z,101639.69
2023-10-02T17:18:54.822Z,101646.88
2023-10-02T17:21:30.764Z,101651.41
2023-10-02T17:24:00.023Z,101647.94
2023-10-02T17:26:32.461Z,101647.94
2023-10-02T17:29:03.766Z,101656.06
2023-10-02T17:31:32.511Z,101647.25
2023-10-02T17:34:01.174Z,101645.56
2023-10-02T17:36:30.590Z,101648.34
2023-10-02T17:39:00.179Z,101644.09
2023-10-02T17:41:30.496Z,101638.00
2023-10-02T17:43:58.991Z,101640.81
2023-10-02T17:46:27.480Z,101637.53
2023-10-02T17:48:55.941Z,101635.91
2023-10-02T17:51:25.985Z,101640.53
2023-10-02T17:53:55.089Z,101642.44
2023-10-02T17:56:23.599Z,101637.22
2023-10-02T17:58:53.538Z,101646.13
2023-10-02T18:01:21.989Z,101643.53
2023-10-02T18:03:50.692Z,101649.78
2023-10-02T18:06:20.845Z,101655.13
2023-10-02T18:08:49.282Z,101654.28
2023-10-02T18:11:17.714Z,101656.09
2023-10-02T18:13:46.169Z,101655.22
2023-10-02T18:16:19.662Z,101664.97
2023-10-02T18:18:48.126Z,101677.47
2023-10-02T18:21:17.336Z,101683.66
2023-10-02T18:23:46.230Z,101686.38
2023-10-02T18:26:14.788Z,101693.56
2023-10-02T18:28:45.010Z,101698.91
2023-10-02T18:31:13.935Z,101709.59
2023-10-02T18:33:43.964Z,101704.25
2023-10-02T18:36:12.540Z,101710.53
2023-10-02T18:38:41.116Z,101704.38
2023-10-02T18:41:11.842Z,101707.09
2023-10-02T18:43:40.504Z,101699.16
2023-10-02T18:46:09.466Z,101691.19
2023-10-02T18:48:38.651Z,101697.47
2023-10-02T18:51:17.594Z,101700.22
2023-10-02T18:53:46.164Z,101710.03
2023-10-02T18:56:14.854Z,101703.88
2023-10-02T18:58:43.458Z,101706.56
2023-10-02T19:01:15.541Z,101707.56
2023-10-02T19:03:44.941Z,101707.63
2023-10-02T19:06:19.566Z,101708.56
2023-10-02T19:08:48.457Z,101691.84
2023-10-02T19:11:17.735Z,101667.22
2023-10-02T19:13:48.421Z,101669.28
2023-10-02T19:16:18.402Z,101658.00
2023-10-02T19:18:47.823Z,101659.19
2023-10-02T19:21:17.684Z,101647.06
2023-10-02T19:23:46.208Z,101651.72
2023-10-02T19:26:14.777Z,101640.41
2023-10-02T19:28:43.844Z,101638.81
2023-10-02T19:31:12.826Z,101627.06
2023-10-02T19:33:41.480Z,101620.19
2023-10-02T19:36:09.977Z,101607.97
2023-10-02T19:38:39.920Z,101612.63
2023-10-02T19:41:16.103Z,101613.78
2023-10-02T19:43:45.211Z,101606.88
2023-10-02T19:46:15.682Z,101595.56
2023-10-02T19:48:44.609Z,101573.56
2023-10-02T19:51:14.822Z,101575.59
2023-10-02T19:53:45.764Z,101573.09
2023-10-02T19:56:15.323Z,101564.44
2023-10-02T19:58:44.319Z,101552.22
2023-10-02T20:01:12.886Z,101547.97
2023-10-02T20:03:41.457Z,101541.00
2023-10-02T20:06:12.010Z,101526.09
2023-10-02T20:08:42.281Z,101514.75
2023-10-02T20:11:12.778Z,101501.59
2023-10-02T20:13:41.326Z,101481.41
2023-10-02T20:16:09.980Z,101479.72
2023-10-02T20:18:38.776Z,101477.19
2023-10-02T20:21:07.448Z,101467.59
2023-10-02T20:23:51.467Z,101465.91
2023-10-02T20:26:22.322Z,101459.91
2023-10-02T20:28:51.029Z,101453.78
2023-10-02T20:31:19.528Z,101444.16
2023-10-02T20:33:48.061Z,101442.44
2023-10-02T20:36:16.559Z,101444.34
2023-10-02T20:38:45.189Z,101440.91
2023-10-02T20:41:13.673Z,101432.16
2023-10-02T20:43:43.638Z,101418.97
2023-10-02T20:46:15.639Z,101419.06
2023-10-02T20:48:44.410Z,101412.06
2023-10-02T20:51:15.227Z,101410.38
2023-10-02T20:53:44.943Z,101402.44
2023-10-02T20:56:13.563Z,101395.44
2023-10-02T20:58:43.585Z,101391.06
2023-10-02T21:01:14.184Z,101385.84
2023-10-02T21:03:42.956Z,101382.28
2023-10-02T21:06:11.493Z,101382.34
2023-10-02T21:08:40.281Z,101380.56
2023-10-02T21:11:08.820Z,101385.88
2023-10-02T21:13:37.396Z,101377.91
2023-10-02T21:16:07.506Z,101380.56
2023-10-02T21:18:36.238Z,101384.06
2023-10-02T21:21:05.324Z,101383.19
2023-10-02T21:23:34.657Z,101380.47
2023-10-02T21:26:05.531Z,101382.22
2023-10-02T21:28:34.245Z,101377.78
2023-10-02T21:31:04.623Z,101373.31
2023-10-02T21:33:34.911Z,101369.78
2023-10-02T21:36:06.082Z,101362.63
2023-10-02T21:38:35.567Z,101368.81
2023-10-02T21:41:13.052Z,101364.34
2023-10-02T21:43:42.133Z,101356.38
2023-10-02T21:46:11.799Z,101359.91
2023-10-02T21:48:43.212Z,101352.84
2023-10-02T21:51:13.223Z,101353.72
2023-10-02T21:53:41.847Z,101345.72
2023-10-02T21:56:17.125Z,101334.22
2023-10-02T21:58:50.193Z,101329.81
2023-10-02T22:01:19.211Z,101317.47
2023-10-02T22:03:53.979Z,101317.53
2023-10-02T22:06:23.030Z,101313.22
2023-10-02T22:08:53.029Z,101309.66
2023-10-02T22:11:22.585Z,101305.16
2023-10-02T22:13:52.125Z,101292.78
2023-10-02T22:16:20.774Z,101289.19
2023-10-02T22:18:52.101Z,101288.22
2023-10-02T22:21:24.652Z,101291.72
2023-10-02T22:23:54.509Z,101285.47
2023-10-02T22:26:23.543Z,101284.59
2023-10-02T22:28:52.629Z,101284.53
2023-10-02T22:31:21.821Z,101288.88
2023-10-02T22:33:51.960Z,101282.63
2023-10-02T22:36:20.897Z,101280.81
2023-10-02T22:38:49.433Z,101277.31
2023-10-02T22:41:17.896Z,101278.25
2023-10-02T22:43:47.281Z,101268.50
2023-10-02T22:46:16.020Z,101259.69
2023-10-02T22:48:44.670Z,101253.56
2023-10-02T22:51:19.702Z,101250.91
2023-10-02T22:53:49.479Z,101249.16
2023-10-02T22:56:19.105Z,101241.16
2023-10-02T22:58:49.695Z,101229.72
2023-10-02T23:01:18.359Z,101232.44
2023-10-02T23:03:46.969Z,101224.50
2023-10-02T23:06:16.979Z,101212.09
2023-10-02T23:08:45.713Z,101203.25
2023-10-02T23:11:15.211Z,101195.31
2023-10-02T23:13:43.883Z,101190.91
2023-10-02T23:16:13.593Z,101184.75
2023-10-02T23:18:42.154Z,101183.88
2023-10-02T23:21:10.637Z,101171.47
2023-10-02T23:23:40.941Z,101166.16
2023-10-02T23:26:18.039Z,101169.75
2023-10-02T23:28:47.744Z,101159.13
2023-10-02T23:31:16.512Z,101158.22
2023-10-02T23:33:45.067Z,101155.63
2023-10-02T23:36:14.626Z,101153.88
2023-10-02T23:38:44.873Z,101161.03
2023-10-02T23:41:16.210Z,101144.34
2023-10-02T23:43:46.288Z,101145.28
2023-10-02T23:46:15.834Z,101141.78
2023-10-02T23:48:44.934Z,101130.38
2023-10-02T23:51:14.566Z,101123.28
2023-10-02T23:53:45.375Z,101110.91
2023-10-02T23:56:15.808Z,101106.56
2023-10-02T23:58:44.906Z,101103.91
